Time;durP1;ratioP1;P1;durP2;ratioP2;P2;SDS_P1;SDS_P2;PMS_P1;PMS_P2;Temp;Humidity;BMP_temperature;BMP_pressure;BME280_temperature;BME280_humidity;BME280_pressure;Samples;Min_cycle;Max_cycle;Signal;HPM_P1;HPM_P2
2022/08/28 00:01:56;;;;;;;14.57;11.80;;;17.00;99.90;;;;;;5017531;28;20474;-92
2022/08/28 00:04:25;;;;;;;12.43;10.40;;;17.10;99.90;;;;;;5018962;28;20446;-92
2022/08/28 00:06:51;;;;;;;12.63;11.23;;;17.10;99.90;;;;;;5018957;28;20479;-93
2022/08/28 00:09:18;;;;;;;16.17;11.20;;;17.10;99.90;;;;;;5018750;28;20463;-93
2022/08/28 00:11:46;;;;;;;13.03;10.83;;;17.10;99.90;;;;;;5019008;28;20447;-92
2022/08/28 00:14:12;;;;;;;14.17;11.17;;;17.20;99.90;;;;;;5018032;28;20461;-93
2022/08/28 00:16:39;;;;;;;15.67;11.73;;;17.20;99.90;;;;;;5018661;28;20458;-91
2022/08/28 00:19:06;;;;;;;18.50;13.53;;;17.20;99.90;;;;;;5018203;28;20455;-92
2022/08/28 00:21:35;;;;;;;16.27;13.20;;;17.20;99.90;;;;;;5018297;28;20497;-92
2022/08/28 00:24:03;;;;;;;16.47;10.20;;;17.20;99.90;;;;;;5018098;28;20486;-94
2022/08/28 00:29:14;;;;;;;13.00;10.43;;;17.20;99.90;;;;;;5018645;28;20450;-93
2022/08/28 00:31:40;;;;;;;11.87;9.93;;;17.20;99.90;;;;;;5018461;28;20466;-92
2022/08/28 00:34:08;;;;;;;14.77;11.03;;;17.30;99.90;;;;;;5017777;28;20451;-92
2022/08/28 00:36:37;;;;;;;11.70;10.50;;;17.20;99.90;;;;;;5017976;28;20487;-92
2022/08/28 00:39:05;;;;;;;12.90;10.10;;;17.30;99.90;;;;;;5018379;28;20435;-91
2022/08/28 00:41:33;;;;;;;11.93;9.97;;;17.30;99.90;;;;;;5018448;28;20482;-94
2022/08/28 00:44:12;;;;;;;10.63;9.53;;;17.30;99.90;;;;;;5017757;28;20463;-92
2022/08/28 00:46:40;;;;;;;12.07;9.73;;;17.30;99.90;;;;;;5018413;28;20526;-92
2022/08/28 00:49:08;;;;;;;12.57;9.80;;;17.30;99.90;;;;;;5018283;28;20458;-93
2022/08/28 00:54:23;;;;;;;12.27;9.80;;;17.30;99.90;;;;;;5018108;28;20478;-94
2022/08/28 00:56:52;;;;;;;12.27;10.90;;;17.40;99.90;;;;;;5018012;28;20478;-93
2022/08/28 00:59:21;;;;;;;12.67;10.07;;;17.40;99.90;;;;;;5017854;28;20451;-93
2022/08/28 01:01:52;;;;;;;11.03;9.60;;;17.40;99.90;;;;;;5017286;28;20502;-93
2022/08/28 01:04:21;;;;;;;12.60;9.97;;;17.40;99.90;;;;;;5017885;28;20556;-93
2022/08/28 01:06:52;;;;;;;13.73;10.60;;;17.40;99.90;;;;;;5017797;28;20481;-92
2022/08/28 01:09:19;;;;;;;11.53;8.83;;;17.40;99.90;;;;;;5017640;28;20445;-93
2022/08/28 01:11:48;;;;;;;15.83;11.13;;;17.40;99.90;;;;;;5017176;28;20539;-93
2022/08/28 01:14:18;;;;;;;12.67;8.93;;;17.40;99.90;;;;;;5017112;28;20482;-94
2022/08/28 01:16:48;;;;;;;10.90;9.00;;;17.40;99.90;;;;;;5016454;28;20471;-92
2022/08/28 01:19:21;;;;;;;10.60;9.30;;;17.50;99.90;;;;;;5011294;28;20495;-92
2022/08/28 01:21:56;;;;;;;16.33;9.80;;;17.50;99.90;;;;;;4999163;28;20478;-92
2022/08/28 01:24:25;;;;;;;13.43;9.50;;;17.50;99.90;;;;;;4996022;28;20963;-93
2022/08/28 01:26:51;;;;;;;15.07;11.20;;;17.50;99.90;;;;;;4997085;28;21013;-92
2022/08/28 01:29:19;;;;;;;11.77;9.50;;;17.50;99.90;;;;;;4997076;28;20474;-93
2022/08/28 01:31:47;;;;;;;10.53;9.40;;;17.50;99.90;;;;;;4997527;28;20498;-92
2022/08/28 01:34:14;;;;;;;11.00;8.83;;;17.50;99.90;;;;;;4997196;28;20529;-94
2022/08/28 01:36:41;;;;;;;11.60;10.37;;;17.60;99.90;;;;;;4997263;28;20486;-92
2022/08/28 01:39:13;;;;;;;10.57;9.47;;;17.60;99.90;;;;;;4997532;28;20541;-92
2022/08/28 01:41:44;;;;;;;12.57;9.90;;;17.60;99.90;;;;;;4997085;28;20486;-92
2022/08/28 01:44:11;;;;;;;12.53;9.30;;;17.60;99.90;;;;;;4996626;28;20478;-93
2022/08/28 01:46:41;;;;;;;12.40;9.30;;;17.60;99.90;;;;;;5000722;28;20490;-92
2022/08/28 01:49:08;;;;;;;11.83;9.30;;;17.60;99.90;;;;;;5004612;28;20473;-93
2022/08/28 01:51:35;;;;;;;11.27;9.00;;;17.60;99.90;;;;;;5006150;28;20455;-93
2022/08/28 01:54:02;;;;;;;11.30;9.27;;;17.60;99.90;;;;;;5005004;28;20470;-93
2022/08/28 01:56:29;;;;;;;11.33;9.33;;;17.60;99.90;;;;;;4999836;28;20466;-93
2022/08/28 01:58:57;;;;;;;10.67;9.57;;;17.60;99.90;;;;;;4997648;28;20995;-92
2022/08/28 02:01:24;;;;;;;10.20;9.20;;;17.60;99.90;;;;;;4997878;28;20478;-93
2022/08/28 02:03:52;;;;;;;10.50;9.10;;;17.60;99.90;;;;;;4997664;28;20473;-93
2022/08/28 02:06:19;;;;;;;9.43;8.00;;;17.50;99.90;;;;;;5000823;28;20549;-93
2022/08/28 02:08:48;;;;;;;12.10;9.80;;;17.50;99.90;;;;;;5017499;28;20455;-93
2022/08/28 02:11:15;;;;;;;10.23;8.20;;;17.50;99.90;;;;;;5017449;28;20463;-94
2022/08/28 02:13:42;;;;;;;10.77;8.83;;;17.50;99.90;;;;;;5008158;28;20900;-93
2022/08/28 02:16:10;;;;;;;9.13;8.20;;;17.50;99.90;;;;;;5007395;28;20482;-94
2022/08/28 02:18:38;;;;;;;9.37;8.43;;;17.50;99.90;;;;;;5010547;28;20470;-92
2022/08/28 02:21:05;;;;;;;9.73;8.60;;;17.50;99.90;;;;;;5008758;28;20462;-92
2022/08/28 02:23:32;;;;;;;11.70;8.70;;;17.40;99.90;;;;;;5004591;28;20833;-93
2022/08/28 02:25:58;;;;;;;14.80;10.03;;;17.50;99.90;;;;;;5005440;28;20494;-92
2022/08/28 02:28:25;;;;;;;12.53;8.73;;;17.40;99.90;;;;;;5004678;28;20543;-92
2022/08/28 02:30:52;;;;;;;10.40;9.40;;;17.40;99.90;;;;;;5015790;28;20474;-93
2022/08/28 02:33:20;;;;;;;11.97;8.73;;;17.50;99.90;;;;;;5007430;28;20455;-92
2022/08/28 02:35:48;;;;;;;12.47;10.00;;;17.50;99.90;;;;;;5002954;28;20493;-94
2022/08/28 02:38:15;;;;;;;12.60;9.40;;;17.50;99.90;;;;;;5002872;28;20466;-93
2022/08/28 02:43:18;;;;;;;11.03;8.43;;;17.50;99.90;;;;;;5048651;23;20545;-94
2022/08/28 02:45:45;;;;;;;13.20;10.07;;;17.60;99.90;;;;;;5055447;23;20479;-95
2022/08/28 02:48:12;;;;;;;11.40;9.60;;;17.60;99.90;;;;;;5021215;28;20510;-95
2022/08/28 02:50:40;;;;;;;13.00;9.80;;;17.60;99.90;;;;;;5021255;28;20466;-95
2022/08/28 03:52:40;;;;;;;13.60;10.90;;;17.80;99.90;;;;;;3688198;23;20715;-92
2022/08/28 03:55:10;;;;;;;16.30;12.07;;;17.80;99.90;;;;;;5037545;28;20453;-95
2022/08/28 03:57:38;;;;;;;12.97;10.97;;;17.80;99.90;;;;;;5278666;23;20489;-95
2022/08/28 04:00:07;;;;;;;14.43;10.53;;;17.80;99.90;;;;;;5038400;28;20562;-95
2022/08/28 04:02:35;;;;;;;14.43;10.87;;;17.90;99.90;;;;;;5019704;28;20493;-95
2022/08/28 04:05:02;;;;;;;12.00;9.93;;;17.90;99.90;;;;;;5019497;28;20445;-95
2022/08/28 04:07:29;;;;;;;14.00;10.47;;;17.90;99.90;;;;;;5019454;28;20439;-95
2022/08/28 04:09:57;;;;;;;12.93;10.17;;;17.90;99.90;;;;;;5019374;28;20469;-95
2022/08/28 04:12:25;;;;;;;14.10;11.00;;;17.90;99.90;;;;;;5019808;28;20459;-96
2022/08/28 04:14:53;;;;;;;13.93;11.03;;;17.90;99.90;;;;;;5019454;28;20446;-94
2022/08/28 04:17:20;;;;;;;16.30;11.70;;;17.90;99.90;;;;;;5019674;28;20454;-95
2022/08/28 04:19:47;;;;;;;12.67;10.90;;;17.90;99.90;;;;;;5019430;28;20463;-94
2022/08/28 04:22:14;;;;;;;14.90;11.90;;;17.90;99.90;;;;;;5143098;23;20560;-94
2022/08/28 09:24:58;;;;;;;7.17;6.33;;;20.30;99.90;;;;;;5036489;28;20457;-95
2022/08/28 09:27:27;;;;;;;10.70;7.53;;;20.30;99.90;;;;;;5037779;28;20459;-95
2022/08/28 09:29:57;;;;;;;7.60;6.23;;;20.40;99.90;;;;;;5037984;28;20526;-93
2022/08/28 09:32:29;;;;;;;7.93;7.10;;;20.50;99.90;;;;;;5038064;28;20485;-93
2022/08/28 09:35:05;;;;;;;7.07;6.37;;;20.80;99.90;;;;;;5032666;28;20463;-94
2022/08/28 09:37:33;;;;;;;9.10;6.50;;;21.00;99.90;;;;;;5025441;28;20441;-95
2022/08/28 09:43:28;;;;;;;8.90;6.97;;;21.40;99.90;;;;;;5444059;23;20505;-94
2022/08/28 09:45:59;;;;;;;6.40;5.70;;;21.50;99.90;;;;;;5000791;28;20472;-93
2022/08/28 09:48:34;;;;;;;6.20;5.43;;;21.50;99.90;;;;;;5027348;28;20437;-94
2022/08/28 09:51:03;;;;;;;5.90;5.27;;;21.40;99.90;;;;;;5036936;28;20504;-92
2022/08/28 09:53:32;;;;;;;7.13;6.43;;;21.40;99.90;;;;;;5036974;28;20441;-94
2022/08/28 09:56:07;;;;;;;7.10;6.40;;;21.50;99.90;;;;;;5030865;28;20528;-93
2022/08/28 09:58:37;;;;;;;6.07;5.23;;;21.70;99.90;;;;;;5017300;28;20460;-94
2022/08/28 10:01:27;;;;;;;6.43;5.80;;;22.00;99.90;;;;;;5017418;28;20474;-94
2022/08/28 10:04:01;;;;;;;9.47;5.73;;;22.20;99.90;;;;;;5016879;28;20521;-94
2022/08/28 10:06:32;;;;;;;6.47;5.87;;;22.20;99.90;;;;;;5017496;28;20447;-94
2022/08/28 10:09:11;;;;;;;8.30;6.23;;;22.20;99.90;;;;;;5024952;28;20506;-94
2022/08/28 10:11:45;;;;;;;6.33;5.63;;;22.00;99.90;;;;;;5011104;28;20462;-93
2022/08/28 10:14:30;;;;;;;6.77;6.07;;;21.90;99.90;;;;;;5011946;28;20493;-93
2022/08/28 10:17:06;;;;;;;7.70;6.90;;;21.90;99.90;;;;;;5019871;28;20455;-90
2022/08/28 10:19:44;;;;;;;7.70;6.43;;;22.20;99.90;;;;;;5030934;28;20445;-93
2022/08/28 10:22:21;;;;;;;5.57;5.07;;;22.50;99.90;;;;;;5027946;28;20469;-91
2022/08/28 10:25:12;;;;;;;9.00;5.63;;;22.80;99.90;;;;;;5026267;28;20486;-90
2022/08/28 10:28:08;;;;;;;5.60;5.10;;;22.80;99.90;;;;;;5008885;28;20491;-89
2022/08/28 10:30:45;;;;;;;7.33;5.40;;;22.70;99.90;;;;;;5011141;28;20554;-91
2022/08/28 10:33:27;;;;;;;5.13;4.70;;;22.60;99.90;;;;;;5005164;28;20473;-92
2022/08/28 10:36:00;;;;;;;6.40;5.80;;;22.70;99.90;;;;;;5011247;28;20463;-92
2022/08/28 10:38:36;;;;;;;5.50;5.00;;;23.00;99.90;;;;;;4992319;28;20477;-92
2022/08/28 10:41:08;;;;;;;6.70;5.30;;;23.30;99.90;;;;;;4992345;28;20475;-92
2022/08/28 10:43:38;;;;;;;5.47;4.97;;;23.40;99.90;;;;;;4991225;28;20495;-92
2022/08/28 10:46:12;;;;;;;6.23;5.43;;;23.40;99.90;;;;;;4994238;28;20830;-93
2022/08/28 10:48:42;;;;;;;6.40;5.20;;;23.50;99.90;;;;;;5010627;28;20477;-93
2022/08/28 10:51:17;;;;;;;5.60;5.10;;;23.70;99.90;;;;;;5010071;28;20479;-92
2022/08/28 10:53:51;;;;;;;6.23;5.23;;;23.80;99.90;;;;;;5011736;28;20795;-94
2022/08/28 10:56:21;;;;;;;5.40;4.90;;;23.80;99.90;;;;;;5019874;28;20482;-94
2022/08/28 10:58:51;;;;;;;5.30;4.80;;;23.70;99.90;;;;;;5019789;28;20470;-94
2022/08/28 11:01:28;;;;;;;5.90;5.30;;;23.80;99.90;;;;;;5019086;28;20476;-93
2022/08/28 11:03:57;;;;;;;6.83;5.20;;;23.90;99.90;;;;;;5019440;28;20542;-94
2022/08/28 11:06:30;;;;;;;5.80;5.30;;;24.10;99.90;;;;;;5023461;28;20515;-93
2022/08/28 11:09:23;;;;;;;6.43;5.23;;;24.20;99.90;;;;;;5021526;28;20530;-92
2022/08/28 11:11:49;;;;;;;5.53;5.00;;;24.40;99.90;;;;;;5019718;28;20468;-95
2022/08/28 11:14:28;;;;;;;8.17;4.70;;;24.60;99.90;;;;;;5018930;28;20445;-95
2022/08/28 11:17:00;;;;;;;4.60;4.20;;;24.70;99.90;;;;;;5027211;28;20513;-93
2022/08/28 11:19:54;;;;;;;5.00;4.50;;;24.80;99.90;;;;;;5039711;28;20524;-92
2022/08/28 11:22:33;;;;;;;5.23;4.67;;;25.00;99.90;;;;;;5018056;28;20453;-94
2022/08/28 11:25:18;;;;;;;5.50;5.00;;;25.10;99.90;;;;;;5019274;28;20476;-93
2022/08/28 11:28:15;;;;;;;4.83;4.43;;;25.10;99.90;;;;;;5033885;28;20441;-93
2022/08/28 11:31:15;;;;;;;5.07;4.60;;;24.90;99.90;;;;;;5032918;28;20468;-94
2022/08/28 11:33:49;;;;;;;5.00;4.20;;;24.70;99.90;;;;;;5038328;28;20456;-95
2022/08/28 11:36:54;;;;;;;5.23;4.73;;;24.40;99.90;;;;;;5032542;28;20449;-94
2022/08/28 11:39:24;;;;;;;5.07;4.57;;;24.30;99.90;;;;;;4987690;28;20480;-94
2022/08/28 11:42:30;;;;;;;6.10;5.10;;;24.10;99.90;;;;;;4998526;28;20477;-94
2022/08/28 11:44:58;;;;;;;5.10;4.70;;;24.00;99.90;;;;;;4997569;28;20463;-93
2022/08/28 11:47:55;;;;;;;5.43;4.93;;;23.90;99.90;;;;;;5024750;28;20539;-93
2022/08/28 11:50:30;;;;;;;4.93;4.43;;;24.00;99.90;;;;;;5036841;28;20486;-93
2022/08/28 11:53:34;;;;;;;5.40;4.83;;;24.30;99.90;;;;;;5037483;28;20463;-93
2022/08/28 11:56:42;;;;;;;6.70;5.17;;;24.60;99.90;;;;;;5029739;28;20461;-93
2022/08/28 11:59:27;;;;;;;4.87;4.37;;;24.90;99.90;;;;;;5014551;28;20461;-94
2022/08/28 12:01:56;;;;;;;5.03;4.53;;;24.80;99.90;;;;;;5015177;28;20485;-93
2022/08/28 12:04:24;;;;;;;5.50;4.60;;;24.80;99.90;;;;;;5015548;28;20503;-93
2022/08/28 12:07:22;;;;;;;5.20;4.70;;;24.70;99.90;;;;;;5022573;28;20463;-94
2022/08/28 12:09:52;;;;;;;5.00;4.53;;;24.90;99.90;;;;;;5037352;28;20452;-94
2022/08/28 12:12:52;;;;;;;4.83;4.43;;;25.20;99.90;;;;;;5027657;28;20467;-91
2022/08/28 12:15:41;;;;;;;4.47;3.90;;;25.40;99.90;;;;;;5025068;28;20458;-91
2022/08/28 12:18:15;;;;;;;4.40;3.97;;;25.50;99.90;;;;;;5012357;28;20461;-91
2022/08/28 12:21:00;;;;;;;6.33;4.90;;;25.30;99.90;;;;;;5018354;28;20889;-91
2022/08/28 12:23:55;;;;;;;4.73;4.33;;;25.30;99.90;;;;;;5019832;28;20453;-92
2022/08/28 12:26:25;;;;;;;4.53;4.13;;;25.40;99.90;;;;;;5014113;28;20466;-94
2022/08/28 12:28:55;;;;;;;4.70;4.30;;;25.60;99.90;;;;;;5000636;28;20473;-92
2022/08/28 12:34:40;;;;;;;4.80;4.40;;;25.80;99.90;;;;;;5002663;28;20445;-94
2022/08/28 12:37:25;;;;;;;5.03;4.53;;;25.60;99.90;;;;;;5012633;28;20460;-92
2022/08/28 12:39:57;;;;;;;5.40;4.40;;;25.30;99.90;;;;;;5022180;28;20959;-92
2022/08/28 12:42:31;;;;;;;6.70;5.00;;;25.10;99.90;;;;;;5021649;28;20464;-93
2022/08/28 12:45:01;;;;;;;4.80;4.40;;;24.90;99.90;;;;;;5003460;28;20488;-91
2022/08/28 12:47:29;;;;;;;4.87;4.30;;;24.90;99.90;;;;;;5017323;28;20460;-93
2022/08/28 12:49:56;;;;;;;4.87;4.47;;;25.10;99.90;;;;;;5002675;28;20484;-93
2022/08/28 12:52:26;;;;;;;4.03;3.70;;;25.20;99.90;;;;;;5013353;28;20465;-93
2022/08/28 12:54:57;;;;;;;4.70;4.30;;;25.40;99.90;;;;;;5015236;28;20459;-92
2022/08/28 12:57:25;;;;;;;4.20;3.80;;;25.60;99.90;;;;;;5013156;28;20513;-92
2022/08/28 12:59:54;;;;;;;4.63;4.23;;;25.80;99.90;;;;;;5009515;28;20473;-91
2022/08/28 13:02:26;;;;;;;6.80;4.80;;;26.00;99.90;;;;;;4996933;28;20499;-91
2022/08/28 13:04:56;;;;;;;4.73;4.30;;;26.00;99.90;;;;;;4999559;28;20471;-90
2022/08/28 13:07:28;;;;;;;4.37;3.97;;;26.10;99.90;;;;;;5013846;28;20446;-91
2022/08/28 13:09:59;;;;;;;4.90;4.47;;;26.30;99.90;;;;;;5022934;28;20469;-91
2022/08/28 13:12:30;;;;;;;4.93;4.53;;;26.10;99.90;;;;;;5035111;28;20473;-91
2022/08/28 13:14:57;;;;;;;5.00;4.53;;;25.90;99.90;;;;;;5021286;28;20460;-92
2022/08/28 13:17:44;;;;;;;5.93;4.50;;;25.80;99.90;;;;;;5011595;28;20522;-93
2022/08/28 13:20:15;;;;;;;4.53;4.07;;;25.90;99.90;;;;;;5015686;28;20485;-93
2022/08/28 13:22:42;;;;;;;4.90;4.40;;;26.00;99.90;;;;;;5014036;28;20475;-92
2022/08/28 13:25:24;;;;;;;4.30;3.90;;;26.20;99.90;;;;;;5014698;28;20488;-92
2022/08/28 13:27:59;;;;;;;6.03;4.17;;;26.20;99.90;;;;;;5013631;28;20470;-91
2022/08/28 13:30:28;;;;;;;4.80;4.40;;;26.30;99.90;;;;;;5022111;28;20481;-92
2022/08/28 13:32:58;;;;;;;5.20;4.00;;;26.30;99.90;;;;;;5036590;28;20464;-91
2022/08/28 13:35:35;;;;;;;4.80;4.40;;;26.40;99.90;;;;;;5014647;28;20476;-92
2022/08/28 13:38:03;;;;;;;4.50;4.10;;;26.20;99.90;;;;;;4995200;28;20458;-91
2022/08/28 13:40:34;;;;;;;4.40;4.10;;;26.10;99.90;;;;;;4994355;28;20491;-92
2022/08/28 13:43:05;;;;;;;4.80;4.40;;;26.10;99.90;;;;;;4993426;28;20470;-91
2022/08/28 13:45:32;;;;;;;4.70;4.30;;;26.10;99.90;;;;;;4993159;28;20501;-90
2022/08/28 13:47:59;;;;;;;4.87;4.23;;;26.20;99.90;;;;;;5010488;28;20483;-92
2022/08/28 13:50:28;;;;;;;4.90;4.07;;;26.30;99.90;;;;;;5012787;28;20485;-90
2022/08/28 13:52:55;;;;;;;4.07;3.77;;;26.30;99.90;;;;;;5013425;28;20465;-91
2022/08/28 13:55:25;;;;;;;5.03;4.53;;;26.30;99.90;;;;;;5014106;28;20454;-93
2022/08/28 13:57:53;;;;;;;4.40;4.10;;;26.30;99.90;;;;;;5012407;28;20516;-92
2022/08/28 14:00:20;;;;;;;5.03;4.47;;;26.30;99.90;;;;;;5013509;28;20554;-93
2022/08/28 14:05:31;;;;;;;4.80;4.40;;;25.80;99.90;;;;;;5013849;28;20486;-91
2022/08/28 14:07:58;;;;;;;4.10;3.73;;;25.60;99.90;;;;;;5013034;28;20479;-92
2022/08/28 14:10:25;;;;;;;4.87;4.47;;;25.80;99.90;;;;;;5019073;28;20999;-92
2022/08/28 14:12:54;;;;;;;4.70;4.13;;;25.90;99.90;;;;;;5013219;28;20961;-92
2022/08/28 14:15:24;;;;;;;5.00;4.50;;;26.00;99.90;;;;;;4999511;28;20469;-92
2022/08/28 14:17:52;;;;;;;4.60;4.20;;;26.10;99.90;;;;;;4999515;28;20473;-92
2022/08/28 14:20:18;;;;;;;4.37;3.90;;;26.10;99.90;;;;;;4998629;28;20490;-92
2022/08/28 14:22:45;;;;;;;5.20;4.73;;;26.10;99.90;;;;;;4997678;28;20473;-93
2022/08/28 14:25:12;;;;;;;4.20;3.90;;;26.20;99.90;;;;;;4997476;28;20514;-92
2022/08/28 14:27:39;;;;;;;4.70;4.17;;;26.30;99.90;;;;;;5011254;28;20472;-92
2022/08/28 14:30:08;;;;;;;4.73;4.33;;;26.30;99.90;;;;;;5017291;28;20573;-92
2022/08/28 14:32:37;;;;;;;4.33;3.93;;;26.30;99.90;;;;;;5017883;28;20473;-92
2022/08/28 14:35:05;;;;;;;4.37;3.97;;;26.10;99.90;;;;;;5017608;28;21073;-92
2022/08/28 14:37:32;;;;;;;4.40;4.00;;;25.90;99.90;;;;;;5014023;28;20735;-94
2022/08/28 14:39:58;;;;;;;4.63;4.23;;;25.70;99.90;;;;;;5019665;28;20842;-93
2022/08/28 14:42:26;;;;;;;4.63;3.90;;;25.60;99.90;;;;;;5009517;28;20835;-91
2022/08/28 14:44:53;;;;;;;4.37;3.97;;;25.80;99.90;;;;;;4999170;28;20868;-92
2022/08/28 14:47:21;;;;;;;4.87;4.00;;;25.90;99.90;;;;;;4997951;28;20462;-91
2022/08/28 14:49:47;;;;;;;5.47;4.17;;;26.00;99.90;;;;;;4996548;28;20466;-90
2022/08/28 14:52:14;;;;;;;7.07;4.13;;;26.10;99.90;;;;;;4994489;28;20473;-90
2022/08/28 14:54:41;;;;;;;5.10;4.10;;;26.20;99.90;;;;;;4996481;28;20458;-91
2022/08/28 14:57:12;;;;;;;4.53;4.03;;;26.20;99.90;;;;;;5000614;28;20458;-91
2022/08/28 14:59:40;;;;;;;4.20;3.80;;;26.30;99.90;;;;;;4996718;28;20461;-92
2022/08/28 15:02:07;;;;;;;3.40;3.10;;;26.30;99.90;;;;;;4999035;28;20498;-92
2022/08/28 15:04:36;;;;;;;3.70;3.40;;;26.30;99.90;;;;;;4993002;28;20510;-91
2022/08/28 15:07:06;;;;;;;4.80;3.90;;;26.40;99.90;;;;;;4997396;28;20994;-91
2022/08/28 15:09:36;;;;;;;4.50;3.93;;;26.40;99.90;;;;;;5007639;28;20468;-90
2022/08/28 15:12:03;;;;;;;4.70;3.73;;;26.40;99.90;;;;;;5007253;28;20488;-90
2022/08/28 15:14:30;;;;;;;4.50;3.77;;;26.40;99.90;;;;;;5007564;28;21337;-91
2022/08/28 15:16:57;;;;;;;4.83;3.80;;;26.40;99.90;;;;;;5003304;28;20466;-90
2022/08/28 15:19:24;;;;;;;4.40;4.00;;;26.40;99.90;;;;;;5007342;28;20850;-90
2022/08/28 16:59:48;;;;;;;4.87;3.50;;;24.30;99.90;;;;;;4117041;26;20475;-93
2022/08/28 17:09:44;;;;;;;3.30;3.00;;;23.90;99.90;;;;;;4929175;29;20787;-92
2022/08/28 17:56:14;;;;;;;;;;;;;;;;;;;;;
2022/08/28 17:59:18;;;;;;;5.07;3.80;;;22.80;99.90;;;;;;4975656;28;20456;-91
2022/08/28 18:02:01;;;;;;;;;;;;;;;;;;;;;
2022/08/28 18:04:28;;;;;;;4.70;4.20;;;22.60;99.90;;;;;;4958139;28;20471;-92
2022/08/28 18:06:58;;;;;;;4.13;3.73;;;22.60;99.90;;;;;;4964002;28;20457;-91
2022/08/28 18:10:33;;;;;;;;;;;;;;;;;;;;;
2022/08/28 18:13:02;;;;;;;3.87;3.57;;;22.40;99.90;;;;;;5023280;23;20496;-92
2022/08/28 18:15:45;;;;;;;4.90;4.27;;;22.40;99.90;;;;;;4982139;28;20451;-94
2022/08/28 18:18:13;;;;;;;4.67;4.13;;;22.30;99.90;;;;;;4985402;28;20519;-92
2022/08/28 18:21:04;;;;;;;3.83;3.53;;;22.20;99.90;;;;;;4999602;28;20479;-93
2022/08/28 18:23:38;;;;;;;4.80;3.90;;;22.20;99.90;;;;;;5005210;28;20471;-93
2022/08/28 18:26:09;;;;;;;3.77;3.40;;;22.10;99.90;;;;;;4992190;28;20477;-92
2022/08/28 18:28:41;;;;;;;4.90;3.83;;;22.00;99.90;;;;;;5007574;28;20550;-91
2022/08/28 18:31:14;;;;;;;4.27;3.87;;;21.90;99.90;;;;;;5008786;28;20487;-94
2022/08/28 18:33:43;;;;;;;4.70;4.07;;;21.80;99.90;;;;;;5009836;28;20467;-92
2022/08/28 18:36:13;;;;;;;4.40;4.00;;;21.70;99.90;;;;;;5008704;28;20475;-93
2022/08/28 18:39:38;;;;;;;4.30;4.00;;;21.60;99.90;;;;;;4992914;28;20458;-95
2022/08/28 18:50:24;;;;;;;4.70;4.07;;;21.10;99.90;;;;;;4986172;28;20891;-94
2022/08/28 18:52:59;;;;;;;4.97;4.40;;;21.00;99.90;;;;;;4956274;29;20509;-95
2022/08/28 18:55:35;;;;;;;4.77;4.37;;;20.90;99.90;;;;;;4977145;28;20490;-95
2022/08/28 18:58:06;;;;;;;4.60;4.10;;;20.80;99.90;;;;;;4993813;28;20490;-95
2022/08/28 19:00:42;;;;;;;4.53;4.10;;;20.70;99.90;;;;;;4997852;28;20572;-93
2022/08/28 19:03:21;;;;;;;4.70;4.30;;;20.50;99.90;;;;;;4992398;28;20518;-93
2022/08/28 19:05:50;;;;;;;5.37;4.87;;;20.50;99.90;;;;;;4996807;28;20506;-91
2022/08/28 19:08:25;;;;;;;5.30;4.80;;;20.40;99.90;;;;;;4997073;28;20818;-91
2022/08/28 19:11:05;;;;;;;;;;;;;;;;;;;;;
2022/08/28 19:13:35;;;;;;;4.97;4.40;;;20.30;99.90;;;;;;4989300;28;20455;-90
2022/08/28 19:16:06;;;;;;;4.30;3.90;;;20.20;99.90;;;;;;4999148;28;20441;-94
2022/08/28 19:18:34;;;;;;;4.67;4.27;;;20.10;99.90;;;;;;4986611;28;20460;-91
2022/08/28 19:21:09;;;;;;;5.80;4.57;;;20.10;99.90;;;;;;4988004;28;20507;-92
2022/08/28 19:23:39;;;;;;;4.97;4.30;;;20.10;99.90;;;;;;4987506;28;20513;-93
2022/08/28 19:26:07;;;;;;;4.27;3.97;;;20.00;99.90;;;;;;4985059;28;20559;-92
2022/08/28 19:28:47;;;;;;;4.77;4.30;;;20.00;99.90;;;;;;4989711;28;20491;-92
2022/08/28 19:31:16;;;;;;;4.43;4.03;;;20.00;99.90;;;;;;4984487;28;20487;-91
2022/08/28 19:33:45;;;;;;;5.67;4.90;;;19.90;99.90;;;;;;4997574;28;20494;-92
2022/08/28 19:36:15;;;;;;;4.13;3.83;;;19.90;99.90;;;;;;4990801;28;20554;-91
2022/08/28 19:38:42;;;;;;;5.93;4.50;;;19.90;99.90;;;;;;4993816;28;20467;-94
2022/08/28 19:41:10;;;;;;;6.13;4.57;;;19.80;99.90;;;;;;4999091;28;20464;-91
2022/08/28 19:43:38;;;;;;;4.60;3.90;;;19.80;99.90;;;;;;4996186;28;20460;-92
2022/08/28 19:46:08;;;;;;;4.43;4.03;;;19.80;99.90;;;;;;4988973;28;20483;-91
2022/08/28 19:48:46;;;;;;;5.07;4.57;;;19.80;99.90;;;;;;4992987;28;20475;-92
2022/08/28 19:54:50;;;;;;;4.97;4.20;;;19.70;99.90;;;;;;4970400;28;20450;-93
2022/08/28 19:57:18;;;;;;;5.10;4.53;;;19.60;99.90;;;;;;4985382;28;20448;-92
2022/08/28 20:06:13;;;;;;;5.70;4.97;;;19.60;99.90;;;;;;4947776;29;20477;-90
2022/08/28 20:11:47;;;;;;;5.37;4.43;;;19.50;99.90;;;;;;4980373;28;20488;-92
2022/08/28 20:17:32;;;;;;;5.10;4.60;;;19.50;99.90;;;;;;4969503;28;20534;-91
2022/08/28 20:22:58;;;;;;;4.60;4.20;;;19.40;99.90;;;;;;4986090;28;20471;-91
2022/08/28 20:40:07;;;;;;;9.93;6.50;;;19.10;99.90;;;;;;4956952;28;20459;-93
2022/08/28 20:42:37;;;;;;;7.33;5.53;;;19.10;99.90;;;;;;4983874;28;20491;-93
2022/08/28 20:49:13;;;;;;;11.53;7.17;;;19.00;99.90;;;;;;4996149;28;20457;-95
2022/08/28 20:51:55;;;;;;;5.43;4.93;;;18.90;99.90;;;;;;4988372;28;20484;-94
2022/08/28 20:54:32;;;;;;;5.80;5.20;;;18.90;99.90;;;;;;4991990;28;20463;-93
2022/08/28 20:57:13;;;;;;;5.60;5.07;;;18.80;99.90;;;;;;4994739;28;20452;-94
2022/08/28 21:11:33;;;;;;;5.60;4.67;;;18.60;99.90;;;;;;4972854;28;20481;-93
2022/08/28 21:14:02;;;;;;;6.33;4.40;;;18.50;99.90;;;;;;4964916;29;20473;-92
2022/08/28 21:16:33;;;;;;;6.47;5.70;;;18.50;99.90;;;;;;4979608;28;20450;-93
2022/08/28 21:21:37;;;;;;;5.50;5.00;;;18.50;99.90;;;;;;4972036;28;20490;-95
2022/08/28 21:24:06;;;;;;;5.30;4.80;;;18.40;99.90;;;;;;4959839;29;20527;-95
2022/08/28 21:26:33;;;;;;;4.97;4.57;;;18.40;99.90;;;;;;4953287;29;20520;-92
2022/08/28 21:29:01;;;;;;;5.60;5.00;;;18.40;99.90;;;;;;4956779;29;20473;-92
2022/08/28 21:31:28;;;;;;;5.17;4.67;;;18.30;99.90;;;;;;4950572;29;20489;-91
2022/08/28 21:33:54;;;;;;;5.50;5.00;;;18.30;99.90;;;;;;4936370;29;20971;-93
2022/08/28 21:36:21;;;;;;;8.50;5.50;;;18.30;99.90;;;;;;4938079;29;20457;-92
2022/08/28 21:38:48;;;;;;;5.10;4.60;;;18.30;99.90;;;;;;4938489;29;20951;-91
2022/08/28 21:41:15;;;;;;;5.80;4.63;;;18.20;99.90;;;;;;4938703;29;20492;-91
2022/08/28 21:43:44;;;;;;;5.33;4.83;;;18.20;99.90;;;;;;4940168;29;20473;-93
2022/08/28 21:46:14;;;;;;;5.33;4.57;;;18.20;99.90;;;;;;4941925;29;21046;-92
2022/08/28 21:48:41;;;;;;;5.30;4.80;;;18.20;99.90;;;;;;4956191;29;20981;-92
2022/08/28 21:51:10;;;;;;;5.37;4.37;;;18.10;99.90;;;;;;4956254;29;20484;-91
2022/08/28 21:53:37;;;;;;;5.20;4.30;;;18.10;99.90;;;;;;4955961;29;20465;-90
2022/08/28 21:56:05;;;;;;;5.30;4.63;;;18.10;99.90;;;;;;4952091;29;20524;-92
2022/08/28 21:58:32;;;;;;;4.93;4.53;;;18.10;99.90;;;;;;4960255;29;20464;-91
2022/08/28 22:01:00;;;;;;;4.90;4.50;;;18.00;99.90;;;;;;4961900;29;20997;-90
2022/08/28 22:03:29;;;;;;;5.20;4.70;;;18.00;99.90;;;;;;4955792;29;20970;-91
2022/08/28 22:05:57;;;;;;;4.87;4.40;;;17.90;99.90;;;;;;4954735;29;20484;-90
2022/08/28 22:08:27;;;;;;;4.80;4.40;;;17.90;99.90;;;;;;4935534;29;20465;-90
2022/08/28 22:10:55;;;;;;;6.13;5.50;;;17.90;99.90;;;;;;4937769;29;20485;-90
2022/08/28 22:13:21;;;;;;;5.47;4.60;;;17.90;99.90;;;;;;4934700;29;20466;-90
2022/08/28 22:15:48;;;;;;;4.97;4.47;;;17.80;99.90;;;;;;4934872;29;20473;-90
2022/08/28 22:18:16;;;;;;;5.17;4.67;;;17.80;99.90;;;;;;4952493;29;21004;-91
2022/08/28 22:23:33;;;;;;;5.93;4.17;;;17.70;99.90;;;;;;4935321;29;20453;-91
2022/08/28 22:26:02;;;;;;;4.93;4.40;;;17.70;99.90;;;;;;4935622;29;20496;-91
2022/08/28 22:28:29;;;;;;;4.60;4.20;;;17.60;99.90;;;;;;4935246;29;20505;-91
2022/08/28 22:30:55;;;;;;;6.67;5.30;;;17.60;99.90;;;;;;4936844;29;20493;-93
2022/08/28 22:33:22;;;;;;;6.03;5.43;;;17.60;99.90;;;;;;4938622;29;20465;-92
2022/08/28 22:35:50;;;;;;;5.40;4.90;;;17.60;99.90;;;;;;4938969;29;20466;-92
2022/08/28 22:38:18;;;;;;;5.03;4.60;;;17.50;99.90;;;;;;4939017;29;20837;-94
